createdAt,value
2023-02-11T00:02:17.015Z,21.10
2023-02-11T00:04:43.175Z,21.45
2023-02-11T00:07:09.318Z,21.52
2023-02-11T00:09:35.479Z,20.42
2023-02-11T00:12:01.630Z,20.70
2023-02-11T00:14:27.760Z,21.38
2023-02-11T00:16:53.954Z,20.52
2023-02-11T00:19:20.176Z,20.17
2023-02-11T00:21:46.348Z,22.40
2023-02-11T00:24:12.493Z,20.95
2023-02-11T00:26:38.672Z,19.90
2023-02-11T00:29:04.788Z,19.65
2023-02-11T00:31:31.093Z,21.77
2023-02-11T00:33:57.254Z,18.90
2023-02-11T00:36:23.462Z,20.90
2023-02-11T00:38:49.641Z,20.02
2023-02-11T00:41:15.777Z,20.40
2023-02-11T00:43:41.913Z,20.23
2023-02-11T00:46:08.195Z,20.75
2023-02-11T00:48:34.369Z,20.55
2023-02-11T00:51:00.525Z,20.98
2023-02-11T00:53:26.706Z,19.17
2023-02-11T00:55:52.848Z,22.02
2023-02-11T00:58:19.036Z,19.88
2023-02-11T01:00:45.151Z,21.30
2023-02-11T01:03:11.319Z,21.90
2023-02-11T01:05:37.576Z,19.88
2023-02-11T01:08:03.721Z,20.15
2023-02-11T01:10:29.909Z,21.17
2023-02-11T01:12:56.059Z,21.55
2023-02-11T01:15:22.234Z,20.40
2023-02-11T01:17:48.378Z,20.73
2023-02-11T01:20:14.557Z,20.85
2023-02-11T01:22:40.937Z,20.85
2023-02-11T01:25:07.145Z,19.40
2023-02-11T01:27:33.299Z,18.83
2023-02-11T01:29:59.460Z,21.60
2023-02-11T01:32:25.604Z,19.55
2023-02-11T01:34:51.780Z,19.23
2023-02-11T01:37:17.929Z,19.95
2023-02-11T01:39:44.049Z,20.17
2023-02-11T01:42:10.239Z,20.42
2023-02-11T01:44:36.370Z,20.45
2023-02-11T01:47:02.556Z,20.42
2023-02-11T01:49:28.899Z,19.73
2023-02-11T01:51:55.062Z,20.25
2023-02-11T01:54:21.178Z,20.92
2023-02-11T01:56:47.376Z,21.30
2023-02-11T01:59:13.557Z,19.77
2023-02-11T02:01:39.788Z,19.40
2023-02-11T02:04:05.958Z,18.98
2023-02-11T02:06:32.171Z,19.02
2023-02-11T02:08:58.389Z,19.13
2023-02-11T02:11:24.579Z,19.73
2023-02-11T02:13:50.786Z,19.30
2023-02-11T02:16:16.944Z,20.63
2023-02-11T02:18:43.181Z,18.70
2023-02-11T02:21:09.369Z,19.25
2023-02-11T02:23:35.538Z,17.42
2023-02-11T02:26:01.710Z,18.33
2023-02-11T02:28:27.897Z,19.00
2023-02-11T02:30:54.139Z,19.50
2023-02-11T02:33:23.537Z,17.55
2023-02-11T02:35:50.047Z,18.75
2023-02-11T02:38:16.347Z,17.42
2023-02-11T02:40:42.502Z,20.17
2023-02-11T02:43:08.630Z,20.02
2023-02-11T02:45:34.833Z,17.48
2023-02-11T02:48:01.104Z,19.70
2023-02-11T02:50:27.278Z,19.52
2023-02-11T02:52:53.430Z,19.75
2023-02-11T02:55:19.620Z,18.73
2023-02-11T02:57:45.803Z,19.92
2023-02-11T03:00:12.024Z,19.73
2023-02-11T03:02:38.188Z,20.30
2023-02-11T03:05:04.382Z,21.13
2023-02-11T03:07:30.582Z,22.30
2023-02-11T03:09:56.765Z,21.02
2023-02-11T03:12:22.972Z,20.67
2023-02-11T03:14:49.122Z,18.95
2023-02-11T03:17:15.286Z,19.42
2023-02-11T03:19:41.411Z,20.98
2023-02-11T03:22:07.572Z,19.15
2023-02-11T03:24:33.748Z,20.63
2023-02-11T03:27:00.014Z,22.00
2023-02-11T03:29:26.398Z,19.90
2023-02-11T03:31:52.575Z,20.15
2023-02-11T03:34:18.793Z,21.23
2023-02-11T03:36:44.932Z,18.95
2023-02-11T03:39:11.128Z,19.77
2023-02-11T03:41:37.350Z,18.88
2023-02-11T03:44:03.542Z,20.95
2023-02-11T03:46:29.667Z,20.77
2023-02-11T03:48:55.816Z,19.35
2023-02-11T03:51:21.963Z,21.15
2023-02-11T03:53:48.109Z,21.80
2023-02-11T03:56:14.229Z,19.88
2023-02-11T03:58:40.440Z,21.17
2023-02-11T04:01:06.670Z,20.30
2023-02-11T04:03:32.904Z,19.08
2023-02-11T04:05:59.202Z,19.00
2023-02-11T04:08:25.386Z,22.00
2023-02-11T04:10:51.559Z,21.30
2023-02-11T04:13:17.734Z,20.35
2023-02-11T04:15:43.943Z,20.20
2023-02-11T04:18:10.112Z,19.23
2023-02-11T04:20:36.312Z,21.80
2023-02-11T04:23:02.492Z,20.88
2023-02-11T04:25:28.684Z,20.63
2023-02-11T04:27:54.986Z,17.98
2023-02-11T04:30:21.202Z,22.75
2023-02-11T04:32:47.330Z,22.23
2023-02-11T04:35:14.517Z,20.98
2023-02-11T04:37:43.763Z,20.75
2023-02-11T04:40:09.913Z,19.95
2023-02-11T04:42:36.043Z,20.27
2023-02-11T04:45:02.241Z,22.45
2023-02-11T04:47:28.476Z,20.02
2023-02-11T04:49:54.657Z,22.10
2023-02-11T04:52:20.887Z,19.50
2023-02-11T04:54:47.042Z,20.63
2023-02-11T04:57:14.388Z,21.60
2023-02-11T04:59:40.512Z,21.48
2023-02-11T05:02:06.654Z,20.77
2023-02-11T05:04:34.062Z,19.55
2023-02-11T05:07:00.250Z,20.90
2023-02-11T05:09:26.400Z,19.13
2023-02-11T05:11:52.580Z,20.20
2023-02-11T05:14:18.757Z,19.75
2023-02-11T05:16:44.948Z,18.17
2023-02-11T05:19:11.349Z,18.77
2023-02-11T05:21:50.350Z,20.63
2023-02-11T05:24:22.988Z,19.67
2023-02-11T05:26:49.186Z,20.83
2023-02-11T05:29:15.305Z,21.13
2023-02-11T05:31:41.446Z,20.35
2023-02-11T05:34:07.614Z,20.98
2023-02-11T05:36:33.795Z,20.83
2023-02-11T05:38:59.987Z,22.50
2023-02-11T05:41:26.116Z,21.33
2023-02-11T05:43:52.318Z,19.45
2023-02-11T05:46:18.450Z,22.40
2023-02-11T05:48:44.636Z,20.30
2023-02-11T05:51:10.842Z,20.88
2023-02-11T05:53:37.048Z,20.27
2023-02-11T05:56:03.226Z,22.23
2023-02-11T05:58:29.389Z,20.20
2023-02-11T06:00:55.513Z,21.35
2023-02-11T06:03:21.675Z,20.73
2023-02-11T06:05:48.047Z,21.92
2023-02-11T06:08:14.283Z,20.90
2023-02-11T06:10:40.478Z,22.50
2023-02-11T06:13:06.610Z,21.00
2023-02-11T06:15:32.795Z,21.40
2023-02-11T06:17:58.987Z,20.55
2023-02-11T06:20:25.184Z,21.88
2023-02-11T06:22:51.312Z,20.80
2023-02-11T06:25:17.459Z,20.88
2023-02-11T06:27:43.630Z,20.13
2023-02-11T06:30:09.875Z,22.60
2023-02-11T06:32:43.860Z,20.30
2023-02-11T06:35:12.248Z,20.98
2023-02-11T06:37:38.693Z,20.55
2023-02-11T06:40:04.861Z,21.45
2023-02-11T06:42:30.994Z,20.83
2023-02-11T06:44:57.123Z,20.08
2023-02-11T06:47:23.271Z,20.17
2023-02-11T06:49:49.430Z,20.23
2023-02-11T06:52:15.626Z,20.15
2023-02-11T06:54:41.810Z,20.55
2023-02-11T06:57:07.930Z,19.23
2023-02-11T06:59:34.161Z,18.90
2023-02-11T07:02:00.521Z,19.77
2023-02-11T07:04:26.711Z,20.58
2023-02-11T07:06:52.906Z,19.58
2023-02-11T07:09:19.077Z,19.50
2023-02-11T07:11:45.260Z,19.15
2023-02-11T07:14:11.431Z,18.63
2023-02-11T07:16:37.633Z,20.55
2023-02-11T07:21:54.265Z,19.27
2023-02-11T07:24:20.418Z,19.67
2023-02-11T07:26:46.624Z,19.75
2023-02-11T07:29:12.843Z,19.33
2023-02-11T07:31:39.095Z,20.33
2023-02-11T07:34:05.394Z,19.30
2023-02-11T07:36:31.518Z,20.45
2023-02-11T07:38:57.679Z,18.48
2023-02-11T07:41:23.815Z,20.13
2023-02-11T07:43:49.971Z,17.63
2023-02-11T07:46:19.229Z,19.00
2023-02-11T07:48:45.382Z,18.60
2023-02-11T07:51:11.570Z,18.13
2023-02-11T07:53:37.726Z,18.52
2023-02-11T07:56:03.914Z,18.85
2023-02-11T07:58:30.139Z,19.30
2023-02-11T08:00:56.369Z,18.42
2023-02-11T08:03:22.674Z,19.42
2023-02-11T08:05:49.256Z,20.05
2023-02-11T08:08:15.676Z,18.60
2023-02-11T08:10:41.840Z,19.17
2023-02-11T08:13:08.075Z,17.45
2023-02-11T08:15:34.279Z,18.67
2023-02-11T08:18:00.435Z,16.52
2023-02-11T08:20:26.589Z,19.60
2023-02-11T08:22:52.769Z,19.48
2023-02-11T08:25:18.924Z,18.83
2023-02-11T08:27:45.048Z,18.17
2023-02-11T08:30:11.242Z,16.23
2023-02-11T08:32:37.679Z,17.13
2023-02-11T08:35:03.869Z,18.45
2023-02-11T08:37:32.763Z,15.30
2023-02-11T08:39:59.308Z,11.98
2023-02-11T08:42:25.518Z,15.75
2023-02-11T08:44:51.705Z,17.38
2023-02-11T08:47:17.887Z,16.85
2023-02-11T08:49:44.099Z,10.32
2023-02-11T08:52:10.326Z,14.80
2023-02-11T08:54:36.531Z,15.30
2023-02-11T08:57:02.747Z,11.32
2023-02-11T08:59:28.954Z,13.90
2023-02-11T09:02:07.150Z,12.85
2023-02-11T09:04:33.383Z,15.27
2023-02-11T09:06:59.573Z,11.27
2023-02-11T09:09:25.768Z,15.68
2023-02-11T09:11:51.937Z,13.25
2023-02-11T09:14:18.069Z,15.60
2023-02-11T09:16:44.310Z,15.57
2023-02-11T09:19:10.512Z,14.80
2023-02-11T09:21:36.704Z,14.18
2023-02-11T09:24:02.936Z,15.68
2023-02-11T09:26:29.074Z,16.77
2023-02-11T09:28:55.218Z,15.20
2023-02-11T09:31:21.452Z,15.32
2023-02-11T09:33:47.662Z,16.38
2023-02-11T09:36:13.826Z,15.75
2023-02-11T09:38:40.014Z,14.40
2023-02-11T09:41:06.186Z,14.82
2023-02-11T09:43:32.347Z,15.88
2023-02-11T09:45:59.950Z,15.40
2023-02-11T09:48:26.157Z,14.25
2023-02-11T09:50:52.645Z,11.20
2023-02-11T09:53:19.036Z,13.35
2023-02-11T09:55:45.215Z,11.35
2023-02-11T09:58:11.363Z,15.07
2023-02-11T10:00:37.475Z,14.90
2023-02-11T10:03:03.623Z,14.65
2023-02-11T10:05:29.749Z,14.90
2023-02-11T10:07:55.912Z,14.77
2023-02-11T10:10:22.081Z,13.20
2023-02-11T10:12:48.289Z,14.18
2023-02-11T10:15:14.524Z,16.08
2023-02-11T10:17:40.725Z,12.85
2023-02-11T10:20:06.916Z,13.00
2023-02-11T10:22:33.101Z,15.82
2023-02-11T10:24:59.230Z,15.38
2023-02-11T10:27:25.460Z,14.23
2023-02-11T10:29:51.604Z,15.82
2023-02-11T10:32:17.752Z,12.65
2023-02-11T10:34:43.935Z,14.80
2023-02-11T10:37:10.345Z,14.38
2023-02-11T10:39:36.495Z,13.68
2023-02-11T10:42:02.657Z,13.80
2023-02-11T10:44:28.808Z,14.15
2023-02-11T10:46:54.976Z,13.10
2023-02-11T10:49:21.105Z,13.70
2023-02-11T10:51:47.306Z,15.88
2023-02-11T10:54:13.933Z,14.32
2023-02-11T10:56:40.221Z,13.95
2023-02-11T10:59:06.432Z,14.20
2023-02-11T11:01:32.686Z,13.00
2023-02-11T11:03:58.866Z,13.20
2023-02-11T11:06:25.339Z,14.07
2023-02-11T11:08:51.569Z,13.38
2023-02-11T11:11:17.825Z,13.13
2023-02-11T11:13:44.344Z,14.65
2023-02-11T11:16:10.514Z,13.45
2023-02-11T11:18:36.755Z,13.52
2023-02-11T11:21:02.966Z,13.45
2023-02-11T11:23:29.124Z,14.05
2023-02-11T11:25:55.294Z,11.55
2023-02-11T11:28:21.625Z,13.75
2023-02-11T11:30:47.807Z,12.32
2023-02-11T11:33:14.023Z,13.18
2023-02-11T11:35:40.194Z,12.60
2023-02-11T11:38:06.403Z,11.95
2023-02-11T11:40:32.560Z,12.80
2023-02-11T11:42:58.674Z,11.95
2023-02-11T11:45:24.853Z,11.90
2023-02-11T11:47:50.971Z,12.10
2023-02-11T11:50:18.513Z,12.38
2023-02-11T11:52:46.307Z,10.85
2023-02-11T11:55:12.493Z,13.40
2023-02-11T11:57:38.650Z,12.65
2023-02-11T12:00:04.779Z,11.05
2023-02-11T12:02:31.028Z,13.70
2023-02-11T12:04:57.206Z,12.50
2023-02-11T12:07:25.814Z,12.13
2023-02-11T12:09:52.188Z,11.50
2023-02-11T12:12:18.326Z,11.88
2023-02-11T12:14:44.526Z,11.98
2023-02-11T12:17:10.693Z,11.20
2023-02-11T12:19:36.842Z,12.07
2023-02-11T12:22:03.035Z,12.32
2023-02-11T12:24:29.268Z,11.70
2023-02-11T12:26:55.447Z,11.85
2023-02-11T12:29:21.629Z,12.43
2023-02-11T12:31:49.193Z,11.65
2023-02-11T12:34:15.447Z,11.90
2023-02-11T12:36:41.593Z,11.50
2023-02-11T12:39:07.802Z,11.35
2023-02-11T12:41:33.927Z,12.70
2023-02-11T12:44:00.136Z,11.90
2023-02-11T12:46:26.315Z,12.48
2023-02-11T12:48:52.510Z,11.13
2023-02-11T12:51:18.700Z,11.95
2023-02-11T12:53:44.848Z,11.13
2023-02-11T12:56:11.047Z,12.10
2023-02-11T12:58:44.830Z,12.02
2023-02-11T13:01:11.855Z,12.50
2023-02-11T13:03:38.074Z,12.80
2023-02-11T13:06:04.260Z,12.73
2023-02-11T13:08:30.442Z,11.57
2023-02-11T13:10:56.589Z,12.85
2023-02-11T13:13:22.773Z,12.18
2023-02-11T13:15:48.956Z,12.70
2023-02-11T13:18:18.795Z,12.57
2023-02-11T13:20:45.324Z,13.45
2023-02-11T13:23:11.530Z,13.35
2023-02-11T13:25:37.655Z,13.48
2023-02-11T13:28:03.902Z,11.93
2023-02-11T13:30:30.146Z,11.82
2023-02-11T13:32:56.371Z,11.25
2023-02-11T13:35:22.594Z,12.45
2023-02-11T13:37:48.728Z,13.25
2023-02-11T13:40:14.882Z,13.02
2023-02-11T13:42:41.012Z,12.20
2023-02-11T13:45:07.197Z,12.60
2023-02-11T13:47:33.385Z,12.75
2023-02-11T13:49:59.609Z,11.63
2023-02-11T13:52:27.406Z,13.25
2023-02-11T13:54:53.618Z,12.50
2023-02-11T13:57:19.801Z,14.13
2023-02-11T13:59:45.970Z,12.15
2023-02-11T14:02:12.217Z,12.48
2023-02-11T14:07:23.587Z,12.68
2023-02-11T14:09:49.724Z,13.18
2023-02-11T14:12:15.943Z,13.48
2023-02-11T14:14:42.071Z,11.98
2023-02-11T14:17:08.287Z,11.70
2023-02-11T14:19:34.645Z,12.90
2023-02-11T14:22:00.889Z,12.48
2023-02-11T14:24:34.341Z,11.82
2023-02-11T14:27:00.632Z,12.02
2023-02-11T14:32:16.228Z,12.13
2023-02-11T14:34:42.491Z,12.30
2023-02-11T14:37:08.666Z,12.02
2023-02-11T14:39:34.894Z,12.05
2023-02-11T14:42:01.121Z,11.93
2023-02-11T14:44:27.324Z,12.70
2023-02-11T14:46:56.617Z,11.88
2023-02-11T14:49:22.979Z,12.90
2023-02-11T14:51:49.183Z,12.05
2023-02-11T14:54:15.411Z,12.88
2023-02-11T14:56:41.633Z,11.82
2023-02-11T14:59:07.863Z,12.20
2023-02-11T15:01:34.191Z,13.20
2023-02-11T15:04:02.722Z,12.35
2023-02-11T15:09:21.262Z,12.00
2023-02-11T15:11:47.427Z,11.95
2023-02-11T15:14:13.628Z,11.73
2023-02-11T15:16:41.599Z,11.25
2023-02-11T15:19:14.649Z,12.85
2023-02-11T15:21:40.849Z,11.98
2023-02-11T15:24:10.026Z,12.30
2023-02-11T15:26:36.268Z,12.32
2023-02-11T15:29:02.434Z,11.35
2023-02-11T15:31:28.827Z,12.90
2023-02-11T15:33:55.493Z,12.00
2023-02-11T15:36:21.634Z,12.18
2023-02-11T15:38:47.800Z,11.80
2023-02-11T15:41:14.030Z,12.77
2023-02-11T15:43:40.208Z,11.95
2023-02-11T15:46:06.400Z,11.43
2023-02-11T15:48:32.580Z,12.43
2023-02-11T15:50:58.750Z,11.25
2023-02-11T15:53:25.076Z,12.88
2023-02-11T15:55:51.188Z,12.00
2023-02-11T15:58:17.342Z,11.63
2023-02-11T16:00:43.553Z,12.13
2023-02-11T16:03:09.687Z,12.77
2023-02-11T16:05:35.856Z,33.45
2023-02-11T16:08:01.982Z,13.73
2023-02-11T16:13:20.606Z,13.70
2023-02-11T16:15:46.796Z,12.77
2023-02-11T16:18:13.001Z,12.82
2023-02-11T16:20:39.137Z,11.80
2023-02-11T16:28:45.498Z,22.88
2023-02-11T16:36:45.669Z,13.63
2023-02-11T16:39:11.869Z,14.02
2023-02-11T16:41:38.017Z,13.68
2023-02-11T16:44:04.208Z,13.68
2023-02-11T16:46:30.424Z,13.45
2023-02-11T16:48:56.550Z,12.48
2023-02-11T16:51:22.719Z,13.13
2023-02-11T16:53:48.939Z,12.40
2023-02-11T16:56:15.140Z,12.20
2023-02-11T16:58:41.279Z,12.32
2023-02-11T17:01:07.432Z,13.60
2023-02-11T17:03:33.632Z,12.63
2023-02-11T17:06:06.092Z,12.25
2023-02-11T17:11:22.332Z,12.20
2023-02-11T17:13:48.656Z,14.25
2023-02-11T17:16:14.812Z,12.95
2023-02-11T17:18:41.024Z,14.05
2023-02-11T17:21:09.263Z,15.45
2023-02-11T17:23:35.425Z,12.55
2023-02-11T17:26:01.585Z,12.70
2023-02-11T17:28:27.804Z,13.57
2023-02-11T17:30:57.269Z,12.85
2023-02-11T17:33:23.590Z,12.07
2023-02-11T17:35:50.167Z,17.17
2023-02-11T17:38:16.750Z,11.63
2023-02-11T17:40:42.903Z,12.23
2023-02-11T17:43:09.064Z,11.70
2023-02-11T17:45:35.286Z,11.00
2023-02-11T17:48:01.431Z,11.50
2023-02-11T17:50:29.286Z,12.57
2023-02-11T17:52:55.737Z,13.00
2023-02-11T17:55:21.975Z,12.68
2023-02-11T17:57:48.140Z,12.20
2023-02-11T18:00:14.354Z,11.70
2023-02-11T18:02:42.629Z,12.20
2023-02-11T18:05:08.837Z,12.55
2023-02-11T18:07:35.005Z,13.05
2023-02-11T18:10:01.189Z,15.27
2023-02-11T18:12:27.420Z,14.15
2023-02-11T18:14:58.192Z,14.38
2023-02-11T18:17:24.640Z,14.75
2023-02-11T18:19:50.975Z,28.52
2023-02-11T18:22:17.180Z,16.85
2023-02-11T18:24:43.378Z,14.57
2023-02-11T18:27:09.547Z,12.10
2023-02-11T18:29:35.697Z,35.35
2023-02-11T18:32:01.915Z,14.40
2023-02-11T18:34:28.113Z,14.43
2023-02-11T18:36:55.779Z,12.50
2023-02-11T18:39:21.976Z,15.30
2023-02-11T18:41:48.185Z,14.68
2023-02-11T18:44:14.435Z,14.15
2023-02-11T18:46:43.381Z,14.25
2023-02-11T18:49:09.605Z,14.45
2023-02-11T18:51:35.772Z,15.52
2023-02-11T18:54:02.002Z,14.27
2023-02-11T18:56:28.184Z,15.95
2023-02-11T18:58:54.324Z,21.80
2023-02-11T19:01:20.553Z,21.17
2023-02-11T19:03:46.788Z,24.92
2023-02-11T19:06:12.956Z,19.23
2023-02-11T19:08:39.107Z,17.35
2023-02-11T19:11:05.297Z,14.15
2023-02-11T19:13:31.443Z,15.43
2023-02-11T19:15:57.599Z,15.15
2023-02-11T19:18:23.754Z,13.48
2023-02-11T19:20:49.936Z,14.40
2023-02-11T19:23:16.167Z,14.25
2023-02-11T19:25:42.371Z,14.00
2023-02-11T19:28:08.732Z,15.32
2023-02-11T19:30:38.731Z,13.27
2023-02-11T19:33:10.222Z,13.57
2023-02-11T19:35:36.865Z,17.92
2023-02-11T19:38:03.193Z,17.77
2023-02-11T19:40:30.833Z,16.65
2023-02-11T19:42:57.133Z,17.35
2023-02-11T19:45:23.477Z,18.75
2023-02-11T19:47:49.874Z,17.13
2023-02-11T19:50:16.375Z,18.05
2023-02-11T19:52:42.729Z,21.17
2023-02-11T19:55:08.926Z,20.23
2023-02-11T19:57:38.104Z,21.92
2023-02-11T20:00:04.548Z,19.23
2023-02-11T20:02:30.951Z,21.38
2023-02-11T20:04:57.172Z,21.20
2023-02-11T20:07:23.419Z,18.13
2023-02-11T20:09:49.703Z,17.75
2023-02-11T20:12:19.351Z,16.88
2023-02-11T20:14:50.421Z,17.60
2023-02-11T20:17:16.685Z,16.83
2023-02-11T20:19:46.642Z,15.75
2023-02-11T20:22:12.822Z,15.27
2023-02-11T20:24:39.020Z,17.30
2023-02-11T20:27:05.210Z,16.67
2023-02-11T20:29:31.411Z,16.17
2023-02-11T20:31:57.706Z,15.68
2023-02-11T20:34:24.001Z,16.17
2023-02-11T20:36:50.153Z,15.85
2023-02-11T20:39:16.339Z,14.07
2023-02-11T20:41:42.524Z,14.25
2023-02-11T20:44:08.721Z,13.52
2023-02-11T20:46:34.931Z,12.20
2023-02-11T20:49:01.110Z,12.07
2023-02-11T20:51:27.311Z,12.02
2023-02-11T20:53:53.438Z,24.83
2023-02-11T20:56:19.618Z,12.85
2023-02-11T20:58:45.779Z,12.27
2023-02-11T21:01:11.928Z,11.68
2023-02-11T21:03:38.115Z,11.73
2023-02-11T21:06:04.392Z,11.70
2023-02-11T21:08:30.535Z,12.15
2023-02-11T21:10:56.680Z,13.25
2023-02-11T21:13:22.873Z,11.45
2023-02-11T21:15:49.039Z,12.52
2023-02-11T21:18:15.208Z,13.02
2023-02-11T21:20:41.350Z,13.68
2023-02-11T21:23:07.529Z,13.25
2023-02-11T21:25:33.732Z,12.40
2023-02-11T21:27:59.968Z,13.18
2023-02-11T21:30:26.110Z,12.75
2023-02-11T21:32:52.418Z,14.35
2023-02-11T21:35:18.583Z,14.23
2023-02-11T21:37:44.756Z,14.48
2023-02-11T21:40:10.963Z,17.48
2023-02-11T21:42:37.126Z,15.40
2023-02-11T21:45:03.529Z,14.50
2023-02-11T21:47:29.710Z,15.55
2023-02-11T21:49:55.916Z,15.13
2023-02-11T21:52:22.042Z,16.10
2023-02-11T21:54:48.209Z,16.25
2023-02-11T21:57:14.404Z,18.33
2023-02-11T21:59:40.542Z,16.40
2023-02-11T22:02:06.687Z,17.67
2023-02-11T22:04:32.927Z,17.58
2023-02-11T22:06:59.096Z,16.60
2023-02-11T22:09:25.305Z,16.75
2023-02-11T22:11:51.461Z,17.40
2023-02-11T22:14:17.637Z,16.50
2023-02-11T22:16:43.854Z,16.55
2023-02-11T22:19:10.730Z,17.35
2023-02-11T22:21:36.962Z,15.98
2023-02-11T22:24:03.144Z,17.38
2023-02-11T22:26:29.290Z,17.05
2023-02-11T22:28:55.438Z,19.05
2023-02-11T22:31:21.618Z,18.25
2023-02-11T22:33:47.888Z,18.00
2023-02-11T22:36:14.067Z,17.75
2023-02-11T22:38:40.232Z,17.60
2023-02-11T22:41:06.363Z,18.25
2023-02-11T22:43:32.545Z,17.17
2023-02-11T22:45:58.950Z,17.42
2023-02-11T22:48:25.240Z,16.70
2023-02-11T22:50:51.410Z,19.08
2023-02-11T22:53:17.563Z,19.42
2023-02-11T22:55:43.780Z,17.75
2023-02-11T22:58:09.947Z,18.10
2023-02-11T23:00:36.168Z,17.33
2023-02-11T23:03:02.359Z,18.08
2023-02-11T23:05:28.575Z,18.33
2023-02-11T23:07:54.740Z,17.80
2023-02-11T23:10:20.931Z,17.67
2023-02-11T23:12:47.142Z,19.42
2023-02-11T23:15:13.357Z,18.70
2023-02-11T23:17:39.578Z,17.60
2023-02-11T23:20:05.784Z,18.30
2023-02-11T23:22:31.924Z,18.73
2023-02-11T23:24:58.056Z,19.80
2023-02-11T23:27:26.255Z,17.60
2023-02-11T23:29:52.400Z,18.45
2023-02-11T23:32:18.555Z,19.15
2023-02-11T23:34:44.771Z,18.08
2023-02-11T23:37:10.916Z,17.10
2023-02-11T23:39:37.309Z,18.67
2023-02-11T23:42:06.377Z,16.73
2023-02-11T23:44:33.735Z,16.85
2023-02-11T23:47:02.801Z,17.70
2023-02-11T23:49:29.026Z,17.73
2023-02-11T23:51:55.234Z,16.65
2023-02-11T23:54:21.415Z,16.77
2023-02-11T23:56:47.569Z,16.73
2023-02-11T23:59:13.764Z,16.48
